Main page
METAR-TAF:

METAR-TAF

Airports :

Lawrenceville–Vincennes International Airport

Lawrenceville, Illinois, United States

latitude: 38-45-38N, longitude: 087-35-56W, elevation: 430 ft

Current weather observation

The report was made 25 minutes ago, at 11:23 UTC
Wind 3 mph from the South/Southeast
Temperature 70°F
Humidity 94%
Pressure 29.96 in. Hg
Visibility: 4 miles
Few clouds at a height of 5000 ft
Broken clouds at a height of 9500 ft
Overcast at a height of 11000 ft
thunderstorm in vicinity, rain, mist

METAR: KLWV 161123Z AUTO 15003KT 4SM VCTS RA BR FEW050 BKN095 OVC110 21/20 A2996 RMK AO2 LTG DSNT SE-W P0008 T02110200

Time: 06:48 (11:48 UTC)


TAF: missing

Weather observations and forecasts of more than 4000 airports (METAR and TAF reports).

The available stations are represented by yellow and red dots on the map.

Hover mouse over dot to see the name of the station.

Then click to see weather observations and forecasts.

To change the map : click on the green buttons with a black cross to zoom in, on the green button with a dash to zoom out, or on the green arrows for adjacent maps.


METAR-TAF: